sensor_id;sensor_type;location;lat;lon;timestamp;pressure;altitude;pressure_sealevel;temperature;humidity
55914;BME280;58179;48.776;9.124;2024-02-23T00:01:28;95425.16;;;4.65;100.00
55914;BME280;58179;48.776;9.124;2024-02-23T00:03:55;95434.84;;;4.65;100.00
55914;BME280;58179;48.776;9.124;2024-02-23T00:06:25;95428.28;;;4.78;100.00
55914;BME280;58179;48.776;9.124;2024-02-23T00:08:53;95431.44;;;4.64;100.00
55914;BME280;58179;48.776;9.124;2024-02-23T00:11:20;95422.50;;;4.60;100.00
55914;BME280;58179;48.776;9.124;2024-02-23T00:13:46;95417.53;;;4.59;100.00
55914;BME280;58179;48.776;9.124;2024-02-23T00:16:13;95427.75;;;4.55;100.00
55914;BME280;58179;48.776;9.124;2024-02-23T00:18:39;95431.69;;;4.53;100.00
55914;BME280;58179;48.776;9.124;2024-02-23T00:21:05;95447.13;;;4.44;100.00
55914;BME280;58179;48.776;9.124;2024-02-23T00:23:32;95449.50;;;4.51;100.00
55914;BME280;58179;48.776;9.124;2024-02-23T00:25:58;95456.06;;;4.58;100.00
55914;BME280;58179;48.776;9.124;2024-02-23T00:28:24;95448.19;;;4.53;100.00
55914;BME280;58179;48.776;9.124;2024-02-23T00:30:51;95459.44;;;4.59;100.00
55914;BME280;58179;48.776;9.124;2024-02-23T00:33:17;95464.69;;;4.54;100.00
55914;BME280;58179;48.776;9.124;2024-02-23T00:35:43;95471.50;;;4.50;100.00
55914;BME280;58179;48.776;9.124;2024-02-23T00:38:09;95472.56;;;4.49;100.00
55914;BME280;58179;48.776;9.124;2024-02-23T00:40:37;95480.94;;;4.56;100.00
55914;BME280;58179;48.776;9.124;2024-02-23T00:43:04;95470.97;;;4.43;100.00
55914;BME280;58179;48.776;9.124;2024-02-23T00:45:30;95473.34;;;4.49;100.00
55914;BME280;58179;48.776;9.124;2024-02-23T00:47:56;95478.59;;;4.49;100.00
55914;BME280;58179;48.776;9.124;2024-02-23T00:50:26;95459.97;;;4.46;100.00
55914;BME280;58179;48.776;9.124;2024-02-23T00:52:53;95464.16;;;4.47;100.00
55914;BME280;58179;48.776;9.124;2024-02-23T00:55:19;95466.00;;;4.46;100.00
55914;BME280;58179;48.776;9.124;2024-02-23T00:57:47;95481.44;;;4.48;100.00
55914;BME280;58179;48.776;9.124;2024-02-23T01:00:13;95492.97;;;4.47;100.00
55914;BME280;58179;48.776;9.124;2024-02-23T01:02:40;95499.56;;;4.64;100.00
55914;BME280;58179;48.776;9.124;2024-02-23T01:05:07;95491.19;;;4.73;100.00
55914;BME280;58179;48.776;9.124;2024-02-23T01:07:35;95490.41;;;4.72;100.00
55914;BME280;58179;48.776;9.124;2024-02-23T01:10:01;95491.97;;;4.58;100.00
55914;BME280;58179;48.776;9.124;2024-02-23T01:12:27;95497.72;;;4.55;100.00
55914;BME280;58179;48.776;9.124;2024-02-23T01:14:55;95492.19;;;4.46;100.00
55914;BME280;58179;48.776;9.124;2024-02-23T01:17:21;95495.06;;;4.40;100.00
55914;BME280;58179;48.776;9.124;2024-02-23T01:19:47;95488.22;;;4.34;100.00
55914;BME280;58179;48.776;9.124;2024-02-23T01:22:13;95471.72;;;4.33;100.00
55914;BME280;58179;48.776;9.124;2024-02-23T01:24:40;95481.66;;;4.31;100.00
55914;BME280;58179;48.776;9.124;2024-02-23T01:27:07;95492.69;;;4.38;100.00
55914;BME280;58179;48.776;9.124;2024-02-23T01:29:33;95490.59;;;4.35;100.00
55914;BME280;58179;48.776;9.124;2024-02-23T01:32:01;95501.34;;;4.39;100.00
55914;BME280;58179;48.776;9.124;2024-02-23T01:34:27;95508.16;;;4.35;100.00
55914;BME280;58179;48.776;9.124;2024-02-23T01:36:53;95498.19;;;4.37;100.00
55914;BME280;58179;48.776;9.124;2024-02-23T01:39:20;95507.06;;;4.31;100.00
55914;BME280;58179;48.776;9.124;2024-02-23T01:41:46;95506.53;;;4.28;100.00
55914;BME280;58179;48.776;9.124;2024-02-23T01:44:12;95505.22;;;4.26;100.00
55914;BME280;58179;48.776;9.124;2024-02-23T01:46:38;95512.28;;;4.25;100.00
55914;BME280;58179;48.776;9.124;2024-02-23T01:49:06;95506.53;;;4.28;100.00
55914;BME280;58179;48.776;9.124;2024-02-23T01:51:34;95515.44;;;4.27;100.00
55914;BME280;58179;48.776;9.124;2024-02-23T01:54:00;95505.25;;;4.36;100.00
55914;BME280;58179;48.776;9.124;2024-02-23T01:56:27;95505.78;;;4.38;100.00
55914;BME280;58179;48.776;9.124;2024-02-23T01:58:53;95504.25;;;4.42;100.00
55914;BME280;58179;48.776;9.124;2024-02-23T02:01:21;95508.44;;;4.53;100.00
55914;BME280;58179;48.776;9.124;2024-02-23T02:03:47;95505.28;;;4.51;100.00
55914;BME280;58179;48.776;9.124;2024-02-23T02:06:14;95511.84;;;4.54;100.00
55914;BME280;58179;48.776;9.124;2024-02-23T02:08:41;95517.13;;;4.69;100.00
55914;BME280;58179;48.776;9.124;2024-02-23T02:11:07;95519.22;;;4.62;100.00
55914;BME280;58179;48.776;9.124;2024-02-23T02:13:33;95522.34;;;4.59;100.00
55914;BME280;58179;48.776;9.124;2024-02-23T02:16:01;95527.31;;;4.55;100.00
55914;BME280;58179;48.776;9.124;2024-02-23T02:18:28;95529.16;;;4.60;100.00
55914;BME280;58179;48.776;9.124;2024-02-23T02:20:55;95533.06;;;4.52;100.00
55914;BME280;58179;48.776;9.124;2024-02-23T02:23:22;95533.34;;;4.51;100.00
55914;BME280;58179;48.776;9.124;2024-02-23T02:25:52;95531.22;;;4.48;100.00
55914;BME280;58179;48.776;9.124;2024-02-23T02:28:19;95533.84;;;4.48;100.00
55914;BME280;58179;48.776;9.124;2024-02-23T02:30:45;95536.47;;;4.43;100.00
55914;BME280;58179;48.776;9.124;2024-02-23T02:33:11;95531.22;;;4.48;100.00
55914;BME280;58179;48.776;9.124;2024-02-23T02:35:38;95529.91;;;4.40;100.00
55914;BME280;58179;48.776;9.124;2024-02-23T02:38:04;95529.66;;;4.52;100.00
55914;BME280;58179;48.776;9.124;2024-02-23T02:40:31;95533.34;;;4.51;100.00
55914;BME280;58179;48.776;9.124;2024-02-23T02:42:58;95529.41;;;4.53;100.00
55914;BME280;58179;48.776;9.124;2024-02-23T02:45:24;95511.56;;;4.45;100.00
55914;BME280;58179;48.776;9.124;2024-02-23T02:47:50;95509.94;;;4.29;100.00
55914;BME280;58179;48.776;9.124;2024-02-23T02:50:16;95517.53;;;4.25;100.00
55914;BME280;58179;48.776;9.124;2024-02-23T02:52:42;95515.50;;;4.43;100.00
55914;BME280;58179;48.776;9.124;2024-02-23T02:55:09;95509.44;;;4.27;100.00
55914;BME280;58179;48.776;9.124;2024-02-23T02:57:36;95522.22;;;4.23;100.00
55914;BME280;58179;48.776;9.124;2024-02-23T03:00:03;95513.31;;;4.19;100.00
55914;BME280;58179;48.776;9.124;2024-02-23T03:02:31;95518.81;;;4.23;100.00
55914;BME280;58179;48.776;9.124;2024-02-23T03:04:57;95518.81;;;4.18;100.00
55914;BME280;58179;48.776;9.124;2024-02-23T03:07:23;95523.56;;;4.31;100.00
55914;BME280;58179;48.776;9.124;2024-02-23T03:09:49;95505.97;;;4.16;100.00
55914;BME280;58179;48.776;9.124;2024-02-23T03:12:16;95503.09;;;4.13;100.00
55914;BME280;58179;48.776;9.124;2024-02-23T03:14:44;95518.50;;;4.09;100.00
55914;BME280;58179;48.776;9.124;2024-02-23T03:17:11;95519.28;;;4.05;100.00
55914;BME280;58179;48.776;9.124;2024-02-23T03:19:37;95506.69;;;4.02;100.00
55914;BME280;58179;48.776;9.124;2024-02-23T03:22:04;95498.31;;;4.00;100.00
55914;BME280;58179;48.776;9.124;2024-02-23T03:24:30;95509.06;;;4.03;100.00
55914;BME280;58179;48.776;9.124;2024-02-23T03:26:56;95514.84;;;4.10;100.00
55914;BME280;58179;48.776;9.124;2024-02-23T03:29:23;95529.28;;;4.13;100.00
55914;BME280;58179;48.776;9.124;2024-02-23T03:31:56;95526.63;;;4.08;100.00
55914;BME280;58179;48.776;9.124;2024-02-23T03:34:22;95508.53;;;4.01;100.00
55914;BME280;58179;48.776;9.124;2024-02-23T03:36:49;95513.22;;;3.94;100.00
55914;BME280;58179;48.776;9.124;2024-02-23T03:39:15;95516.59;;;3.89;100.00
55914;BME280;58179;48.776;9.124;2024-02-23T03:41:41;95516.31;;;3.86;100.00
55914;BME280;58179;48.776;9.124;2024-02-23T03:44:07;95524.13;;;3.76;100.00
55914;BME280;58179;48.776;9.124;2024-02-23T03:46:34;95527.56;;;3.86;100.00
55914;BME280;58179;48.776;9.124;2024-02-23T03:49:02;95529.22;;;4.08;100.00
55914;BME280;58179;48.776;9.124;2024-02-23T03:51:28;95532.56;;;3.93;100.00
55914;BME280;58179;48.776;9.124;2024-02-23T03:53:54;95535.72;;;3.90;100.00
55914;BME280;58179;48.776;9.124;2024-02-23T03:56:20;95550.84;;;3.83;100.00
55914;BME280;58179;48.776;9.124;2024-02-23T03:58:46;95557.91;;;3.82;100.00
55914;BME280;58179;48.776;9.124;2024-02-23T04:01:12;95556.84;;;3.83;100.00
55914;BME280;58179;48.776;9.124;2024-02-23T04:03:38;95548.97;;;3.78;100.00
55914;BME280;58179;48.776;9.124;2024-02-23T04:06:06;95537.97;;;3.76;100.00
55914;BME280;58179;48.776;9.124;2024-02-23T04:08:33;95529.31;;;3.71;100.00
55914;BME280;58179;48.776;9.124;2024-02-23T04:10:59;95542.63;;;3.64;100.00
55914;BME280;58179;48.776;9.124;2024-02-23T04:13:25;95542.06;;;3.62;100.00
55914;BME280;58179;48.776;9.124;2024-02-23T04:15:51;95535.53;;;3.60;100.00
55914;BME280;58179;48.776;9.124;2024-02-23T04:18:17;95541.84;;;3.69;100.00
55914;BME280;58179;48.776;9.124;2024-02-23T04:20:44;95540.50;;;3.61;100.00
55914;BME280;58179;48.776;9.124;2024-02-23T04:23:11;95553.31;;;3.63;100.00
55914;BME280;58179;48.776;9.124;2024-02-23T04:25:37;95544.00;;;3.77;100.00
55914;BME280;58179;48.776;9.124;2024-02-23T04:28:04;95542.13;;;3.67;100.00
55914;BME280;58179;48.776;9.124;2024-02-23T04:30:30;95540.75;;;3.60;100.00
55914;BME280;58179;48.776;9.124;2024-02-23T04:32:56;95545.69;;;3.56;100.00
55914;BME280;58179;48.776;9.124;2024-02-23T04:35:23;95537.03;;;3.50;100.00
55914;BME280;58179;48.776;9.124;2024-02-23T04:37:49;95535.69;;;3.43;100.00
55914;BME280;58179;48.776;9.124;2024-02-23T04:40:17;95547.75;;;3.49;100.00
55914;BME280;58179;48.776;9.124;2024-02-23T04:42:44;95553.41;;;3.36;100.00
55914;BME280;58179;48.776;9.124;2024-02-23T04:45:11;95556.25;;;3.34;100.00
55914;BME280;58179;48.776;9.124;2024-02-23T04:47:37;95547.38;;;3.35;100.00
55914;BME280;58179;48.776;9.124;2024-02-23T04:50:07;95540.78;;;3.28;100.00
55914;BME280;58179;48.776;9.124;2024-02-23T04:52:33;95539.44;;;3.25;100.00
55914;BME280;58179;48.776;9.124;2024-02-23T04:54:59;95545.19;;;3.22;100.00
55914;BME280;58179;48.776;9.124;2024-02-23T04:57:26;95539.66;;;3.19;100.00
55914;BME280;58179;48.776;9.124;2024-02-23T04:59:52;95532.63;;;3.19;100.00
55914;BME280;58179;48.776;9.124;2024-02-23T05:02:19;95524.22;;;3.17;100.00
55914;BME280;58179;48.776;9.124;2024-02-23T05:04:45;95518.72;;;3.14;100.00
55914;BME280;58179;48.776;9.124;2024-02-23T05:07:11;95520.53;;;3.08;100.00
55914;BME280;58179;48.776;9.124;2024-02-23T05:09:37;95522.81;;;3.04;100.00
55914;BME280;58179;48.776;9.124;2024-02-23T05:12:04;95513.91;;;3.00;100.00
55914;BME280;58179;48.776;9.124;2024-02-23T05:14:31;95521.16;;;2.93;100.00
55914;BME280;58179;48.776;9.124;2024-02-23T05:16:57;95531.28;;;2.85;100.00
55914;BME280;58179;48.776;9.124;2024-02-23T05:19:24;95536.88;;;2.71;100.00
55914;BME280;58179;48.776;9.124;2024-02-23T05:21:50;95531.97;;;2.75;100.00
55914;BME280;58179;48.776;9.124;2024-02-23T05:24:16;95524.81;;;2.65;100.00
55914;BME280;58179;48.776;9.124;2024-02-23T05:26:42;95536.84;;;2.66;100.00
55914;BME280;58179;48.776;9.124;2024-02-23T05:29:10;95543.66;;;2.67;100.00
55914;BME280;58179;48.776;9.124;2024-02-23T05:31:46;95551.44;;;2.62;100.00
55914;BME280;58179;48.776;9.124;2024-02-23T05:34:13;95548.28;;;2.60;100.00
55914;BME280;58179;48.776;9.124;2024-02-23T05:36:39;95551.94;;;2.59;100.00
55914;BME280;58179;48.776;9.124;2024-02-23T05:39:06;95556.84;;;2.56;100.00
55914;BME280;58179;48.776;9.124;2024-02-23T05:41:33;95557.09;;;2.54;100.00
55914;BME280;58179;48.776;9.124;2024-02-23T05:43:59;95560.75;;;2.53;100.00
55914;BME280;58179;48.776;9.124;2024-02-23T05:46:25;95564.38;;;2.52;100.00
55914;BME280;58179;48.776;9.124;2024-02-23T05:48:53;95556.50;;;2.47;100.00
55914;BME280;58179;48.776;9.124;2024-02-23T05:51:19;95555.41;;;2.43;100.00
55914;BME280;58179;48.776;9.124;2024-02-23T05:53:45;95557.47;;;2.41;100.00
55914;BME280;58179;48.776;9.124;2024-02-23T05:56:12;95566.50;;;2.33;100.00
55914;BME280;58179;48.776;9.124;2024-02-23T05:58:38;95567.44;;;2.22;100.00
55914;BME280;58179;48.776;9.124;2024-02-23T06:01:04;95560.59;;;2.16;100.00
55914;BME280;58179;48.776;9.124;2024-02-23T06:03:30;95561.84;;;2.14;100.00
55914;BME280;58179;48.776;9.124;2024-02-23T06:05:58;95567.06;;;2.14;100.00
55914;BME280;58179;48.776;9.124;2024-02-23T06:08:24;95569.63;;;2.09;100.00
55914;BME280;58179;48.776;9.124;2024-02-23T06:10:50;95563.06;;;2.06;100.00
55914;BME280;58179;48.776;9.124;2024-02-23T06:13:16;95569.06;;;2.07;100.00
55914;BME280;58179;48.776;9.124;2024-02-23T06:15:42;95588.69;;;2.09;100.00
55914;BME280;58179;48.776;9.124;2024-02-23T06:18:09;95593.91;;;2.09;100.00
55914;BME280;58179;48.776;9.124;2024-02-23T06:20:35;95590.41;;;2.04;100.00
55914;BME280;58179;48.776;9.124;2024-02-23T06:23:03;95603.97;;;2.01;100.00
55914;BME280;58179;48.776;9.124;2024-02-23T06:25:29;95606.56;;;2.01;100.00
55914;BME280;58179;48.776;9.124;2024-02-23T06:27:55;95612.03;;;1.99;100.00
55914;BME280;58179;48.776;9.124;2024-02-23T06:30:21;95611.22;;;1.99;100.00
55914;BME280;58179;48.776;9.124;2024-02-23T06:32:47;95601.91;;;2.03;100.00
55914;BME280;58179;48.776;9.124;2024-02-23T06:35:13;95609.19;;;2.01;100.00
55914;BME280;58179;48.776;9.124;2024-02-23T06:37:40;95597.72;;;2.02;100.00
55914;BME280;58179;48.776;9.124;2024-02-23T06:40:08;95601.91;;;2.03;100.00
55914;BME280;58179;48.776;9.124;2024-02-23T06:42:35;95596.69;;;2.03;100.00
55914;BME280;58179;48.776;9.124;2024-02-23T06:45:01;95582.16;;;2.12;100.00
55914;BME280;58179;48.776;9.124;2024-02-23T06:47:27;95593.16;;;2.14;100.00
55914;BME280;58179;48.776;9.124;2024-02-23T06:49:53;95583.09;;;2.22;100.00
55914;BME280;58179;48.776;9.124;2024-02-23T06:52:19;95586.00;;;2.26;100.00
55914;BME280;58179;48.776;9.124;2024-02-23T06:54:45;95590.00;;;2.33;100.00
55914;BME280;58179;48.776;9.124;2024-02-23T06:57:13;95595.00;;;2.35;100.00
55914;BME280;58179;48.776;9.124;2024-02-23T06:59:39;95600.78;;;2.37;100.00
55914;BME280;58179;48.776;9.124;2024-02-23T07:02:05;95598.16;;;2.37;100.00
55914;BME280;58179;48.776;9.124;2024-02-23T07:04:31;95601.06;;;2.41;100.00
55914;BME280;58179;48.776;9.124;2024-02-23T07:06:58;95608.41;;;2.44;100.00
55914;BME280;58179;48.776;9.124;2024-02-23T07:09:24;95611.06;;;2.49;100.00
55914;BME280;58179;48.776;9.124;2024-02-23T07:11:50;95605.84;;;2.49;100.00
55914;BME280;58179;48.776;9.124;2024-02-23T07:14:18;95597.78;;;2.50;100.00
55914;BME280;58179;48.776;9.124;2024-02-23T07:16:46;95599.59;;;2.50;100.00
55914;BME280;58179;48.776;9.124;2024-02-23T07:19:12;95597.78;;;2.50;100.00
55914;BME280;58179;48.776;9.124;2024-02-23T07:21:39;95594.94;;;2.52;100.00
55914;BME280;58179;48.776;9.124;2024-02-23T07:24:05;95605.94;;;2.54;100.00
55914;BME280;58179;48.776;9.124;2024-02-23T07:26:32;95606.72;;;2.54;100.00
55914;BME280;58179;48.776;9.124;2024-02-23T07:28:58;95612.78;;;2.60;100.00
55914;BME280;58179;48.776;9.124;2024-02-23T07:31:25;95613.88;;;2.64;100.00
55914;BME280;58179;48.776;9.124;2024-02-23T07:33:51;95609.75;;;2.68;100.00
55914;BME280;58179;48.776;9.124;2024-02-23T07:36:18;95608.75;;;2.74;100.00
55914;BME280;58179;48.776;9.124;2024-02-23T07:38:44;95600.50;;;2.82;100.00
55914;BME280;58179;48.776;9.124;2024-02-23T07:41:10;95599.50;;;2.88;100.00
55914;BME280;58179;48.776;9.124;2024-02-23T07:43:37;95600.84;;;2.91;100.00
55914;BME280;58179;48.776;9.124;2024-02-23T07:46:03;95595.19;;;2.99;100.00
55914;BME280;58179;48.776;9.124;2024-02-23T07:48:32;95594.97;;;3.05;100.00
55914;BME280;58179;48.776;9.124;2024-02-23T07:50:58;95591.13;;;3.13;100.00
55914;BME280;58179;48.776;9.124;2024-02-23T07:53:24;95596.16;;;3.20;100.00
55914;BME280;58179;48.776;9.124;2024-02-23T07:55:50;95600.09;;;3.22;100.00
55914;BME280;58179;48.776;9.124;2024-02-23T07:58:16;95603.50;;;3.23;100.00
55914;BME280;58179;48.776;9.124;2024-02-23T08:00:42;95610.59;;;3.27;100.00
55914;BME280;58179;48.776;9.124;2024-02-23T08:03:09;95614.81;;;3.33;100.00
55914;BME280;58179;48.776;9.124;2024-02-23T08:05:37;95614.88;;;3.38;100.00
55914;BME280;58179;48.776;9.124;2024-02-23T08:08:04;95626.69;;;3.46;100.00
55914;BME280;58179;48.776;9.124;2024-02-23T08:10:30;95622.53;;;3.45;100.00
55914;BME280;58179;48.776;9.124;2024-02-23T08:12:56;95620.16;;;3.43;100.00
55914;BME280;58179;48.776;9.124;2024-02-23T08:15:23;95616.97;;;3.68;100.00
55914;BME280;58179;48.776;9.124;2024-02-23T08:17:49;95613.44;;;3.53;100.00
55914;BME280;58179;48.776;9.124;2024-02-23T08:20:15;95613.72;;;3.56;100.00
55914;BME280;58179;48.776;9.124;2024-02-23T08:22:43;95611.97;;;3.67;100.00
55914;BME280;58179;48.776;9.124;2024-02-23T08:25:10;95611.91;;;3.62;100.00
55914;BME280;58179;48.776;9.124;2024-02-23T08:27:36;95600.63;;;3.56;100.00
55914;BME280;58179;48.776;9.124;2024-02-23T08:30:03;95607.69;;;3.56;100.00
55914;BME280;58179;48.776;9.124;2024-02-23T08:32:29;95601.88;;;3.48;100.00
55914;BME280;58179;48.776;9.124;2024-02-23T08:34:55;95602.56;;;3.71;100.00
55914;BME280;58179;48.776;9.124;2024-02-23T08:37:28;95591.25;;;3.60;100.00
55914;BME280;58179;48.776;9.124;2024-02-23T08:39:55;95592.31;;;3.32;100.00
55914;BME280;58179;48.776;9.124;2024-02-23T08:42:22;95598.53;;;3.21;100.00
55914;BME280;58179;48.776;9.124;2024-02-23T08:44:48;95600.25;;;3.37;100.00
55914;BME280;58179;48.776;9.124;2024-02-23T08:47:14;95600.28;;;3.47;100.00
55914;BME280;58179;48.776;9.124;2024-02-23T08:49:41;95608.66;;;3.44;100.00
55914;BME280;58179;48.776;9.124;2024-02-23T08:52:07;95606.31;;;3.48;100.00
55914;BME280;58179;48.776;9.124;2024-02-23T08:54:33;95608.22;;;3.58;100.00
55914;BME280;58179;48.776;9.124;2024-02-23T08:57:01;95605.69;;;3.68;100.00
55914;BME280;58179;48.776;9.124;2024-02-23T08:59:27;95607.19;;;3.59;100.00
55914;BME280;58179;48.776;9.124;2024-02-23T09:01:53;95616.66;;;3.65;100.00
55914;BME280;58179;48.776;9.124;2024-02-23T09:04:19;95616.97;;;3.68;100.00
55914;BME280;58179;48.776;9.124;2024-02-23T09:06:45;95606.69;;;3.62;100.00
55914;BME280;58179;48.776;9.124;2024-02-23T09:09:11;95611.75;;;3.73;100.00
55914;BME280;58179;48.776;9.124;2024-02-23T09:11:38;95616.97;;;3.68;100.00
55914;BME280;58179;48.776;9.124;2024-02-23T09:14:05;95620.31;;;3.64;100.00
55914;BME280;58179;48.776;9.124;2024-02-23T09:16:31;95623.38;;;3.56;100.00
55914;BME280;58179;48.776;9.124;2024-02-23T09:18:57;95620.63;;;3.72;100.00
55914;BME280;58179;48.776;9.124;2024-02-23T09:21:24;95625.16;;;3.82;100.00
55914;BME280;58179;48.776;9.124;2024-02-23T09:23:50;95628.63;;;3.93;100.00
55914;BME280;58179;48.776;9.124;2024-02-23T09:26:16;95629.94;;;3.90;100.00
55914;BME280;58179;48.776;9.124;2024-02-23T09:28:43;95625.38;;;4.12;100.00
55914;BME280;58179;48.776;9.124;2024-02-23T09:31:12;95620.94;;;4.18;100.00
55914;BME280;58179;48.776;9.124;2024-02-23T09:33:38;95625.16;;;4.29;100.00
55914;BME280;58179;48.776;9.124;2024-02-23T09:36:05;95625.38;;;4.12;100.00
55914;BME280;58179;48.776;9.124;2024-02-23T09:38:31;95624.84;;;4.15;100.00
55914;BME280;58179;48.776;9.124;2024-02-23T09:40:58;95629.50;;;4.03;100.00
55914;BME280;58179;48.776;9.124;2024-02-23T09:43:29;95632.69;;;4.15;100.00
55914;BME280;58179;48.776;9.124;2024-02-23T09:45:58;95632.50;;;4.27;100.00
55914;BME280;58179;48.776;9.124;2024-02-23T09:48:26;95639.69;;;4.52;100.00
55914;BME280;58179;48.776;9.124;2024-02-23T09:50:54;95641.72;;;5.07;100.00
55914;BME280;58179;48.776;9.124;2024-02-23T09:53:23;95640.50;;;5.65;100.00
55914;BME280;58179;48.776;9.124;2024-02-23T09:55:50;95641.81;;;6.03;100.00
55914;BME280;58179;48.776;9.124;2024-02-23T09:58:17;95648.09;;;6.38;100.00
55914;BME280;58179;48.776;9.124;2024-02-23T10:00:45;95632.59;;;6.31;100.00
55914;BME280;58179;48.776;9.124;2024-02-23T10:03:11;95630.00;;;6.16;100.00
55914;BME280;58179;48.776;9.124;2024-02-23T10:05:38;95636.19;;;6.60;100.00
55914;BME280;58179;48.776;9.124;2024-02-23T10:08:05;95634.56;;;6.75;100.00
55914;BME280;58179;48.776;9.124;2024-02-23T10:10:33;95644.94;;;7.49;100.00
55914;BME280;58179;48.776;9.124;2024-02-23T10:13:00;95626.63;;;7.68;100.00
55914;BME280;58179;48.776;9.124;2024-02-23T10:15:28;95621.81;;;7.80;100.00
55914;BME280;58179;48.776;9.124;2024-02-23T10:17:54;95600.41;;;7.87;100.00
55914;BME280;58179;48.776;9.124;2024-02-23T10:20:20;95614.50;;;7.72;100.00
55914;BME280;58179;48.776;9.124;2024-02-23T10:22:48;95619.88;;;7.57;100.00
55914;BME280;58179;48.776;9.124;2024-02-23T10:25:14;95610.41;;;7.17;100.00
55914;BME280;58179;48.776;9.124;2024-02-23T10:27:41;95623.91;;;7.05;100.00
55914;BME280;58179;48.776;9.124;2024-02-23T10:30:09;95626.13;;;6.83;100.00
55914;BME280;58179;48.776;9.124;2024-02-23T10:32:38;95628.84;;;6.52;100.00
55914;BME280;58179;48.776;9.124;2024-02-23T10:35:13;95630.41;;;6.58;100.00
55914;BME280;58179;48.776;9.124;2024-02-23T10:37:42;95630.03;;;6.90;100.00
55914;BME280;58179;48.776;9.124;2024-02-23T10:40:12;95617.63;;;6.96;100.00
55914;BME280;58179;48.776;9.124;2024-02-23T10:42:44;95605.31;;;6.91;100.00
55914;BME280;58179;48.776;9.124;2024-02-23T10:45:14;95619.38;;;7.11;100.00
55914;BME280;58179;48.776;9.124;2024-02-23T10:47:42;95617.75;;;7.20;100.00
55914;BME280;58179;48.776;9.124;2024-02-23T10:50:09;95617.88;;;7.44;100.00
55914;BME280;58179;48.776;9.124;2024-02-23T10:52:36;95611.28;;;7.75;100.00
55914;BME280;58179;48.776;9.124;2024-02-23T10:55:05;95612.91;;;8.34;100.00
55914;BME280;58179;48.776;9.124;2024-02-23T10:57:36;95605.94;;;8.43;100.00
55914;BME280;58179;48.776;9.124;2024-02-23T11:00:04;95619.88;;;8.91;100.00
55914;BME280;58179;48.776;9.124;2024-02-23T11:02:38;95609.88;;;8.69;100.00
55914;BME280;58179;48.776;9.124;2024-02-23T11:05:06;95609.03;;;8.21;100.00
55914;BME280;58179;48.776;9.124;2024-02-23T11:07:38;95601.69;;;8.47;100.00
55914;BME280;58179;48.776;9.124;2024-02-23T11:10:06;95595.53;;;8.57;100.00
55914;BME280;58179;48.776;9.124;2024-02-23T11:12:35;95589.72;;;8.31;100.00
55914;BME280;58179;48.776;9.124;2024-02-23T11:15:02;95597.19;;;8.47;100.00
55914;BME280;58179;48.776;9.124;2024-02-23T11:17:31;95598.28;;;8.65;100.00
55914;BME280;58179;48.776;9.124;2024-02-23T11:19:58;95585.59;;;8.48;100.00
55914;BME280;58179;48.776;9.124;2024-02-23T11:22:25;95586.97;;;8.12;100.00
55914;BME280;58179;48.776;9.124;2024-02-23T11:25:00;95581.41;;;8.19;100.00
55914;BME280;58179;48.776;9.124;2024-02-23T11:27:31;95587.38;;;7.71;100.00
55914;BME280;58179;48.776;9.124;2024-02-23T11:30:02;95589.53;;;7.64;100.00
55914;BME280;58179;48.776;9.124;2024-02-23T11:32:38;95590.47;;;7.45;100.00
55914;BME280;58179;48.776;9.124;2024-02-23T11:35:07;95590.34;;;7.60;100.00
55914;BME280;58179;48.776;9.124;2024-02-23T11:37:43;95577.94;;;7.65;100.00
55914;BME280;58179;48.776;9.124;2024-02-23T11:40:11;95587.69;;;7.65;100.00
55914;BME280;58179;48.776;9.124;2024-02-23T11:42:39;95581.19;;;7.57;100.00
55914;BME280;58179;48.776;9.124;2024-02-23T11:45:07;95582.88;;;7.38;100.00
55914;BME280;58179;48.776;9.124;2024-02-23T11:47:34;95590.84;;;7.33;100.00
55914;BME280;58179;48.776;9.124;2024-02-23T11:50:02;95581.81;;;7.00;100.00
55914;BME280;58179;48.776;9.124;2024-02-23T11:52:28;95591.84;;;6.93;100.00
55914;BME280;58179;48.776;9.124;2024-02-23T11:54:54;95573.06;;;6.66;100.00
55914;BME280;58179;48.776;9.124;2024-02-23T11:57:22;95575.50;;;6.47;100.00
55914;BME280;58179;48.776;9.124;2024-02-23T11:59:50;95573.91;;;6.56;100.00
55914;BME280;58179;48.776;9.124;2024-02-23T12:02:17;95574.19;;;6.49;100.00
55914;BME280;58179;48.776;9.124;2024-02-23T12:04:44;95566.50;;;6.63;100.00
55914;BME280;58179;48.776;9.124;2024-02-23T12:07:10;95573.03;;;6.76;100.00
55914;BME280;58179;48.776;9.124;2024-02-23T12:09:37;95563.31;;;6.76;100.00
55914;BME280;58179;48.776;9.124;2024-02-23T12:12:07;95565.78;;;7.02;100.00
55914;BME280;58179;48.776;9.124;2024-02-23T12:14:35;95564.66;;;7.08;100.00
55914;BME280;58179;48.776;9.124;2024-02-23T12:17:02;95563.09;;;7.12;100.00
55914;BME280;58179;48.776;9.124;2024-02-23T12:19:31;95559.03;;;7.24;100.00
55914;BME280;58179;48.776;9.124;2024-02-23T12:22:00;95547.59;;;7.44;100.00
55914;BME280;58179;48.776;9.124;2024-02-23T12:24:27;95550.03;;;7.30;100.00
55914;BME280;58179;48.776;9.124;2024-02-23T12:26:54;95551.47;;;7.52;100.00
55914;BME280;58179;48.776;9.124;2024-02-23T12:29:21;95555.84;;;7.61;100.00
55914;BME280;58179;48.776;9.124;2024-02-23T12:31:47;95555.78;;;7.71;100.00
55914;BME280;58179;48.776;9.124;2024-02-23T12:34:15;95550.50;;;7.43;100.00
55914;BME280;58179;48.776;9.124;2024-02-23T12:36:45;95548.88;;;7.47;100.00
55914;BME280;58179;48.776;9.124;2024-02-23T12:39:12;95557.34;;;7.38;100.00
55914;BME280;58179;48.776;9.124;2024-02-23T12:41:38;95547.81;;;7.14;100.00
55914;BME280;58179;48.776;9.124;2024-02-23T12:44:04;95547.25;;;7.17;100.00
55914;BME280;58179;48.776;9.124;2024-02-23T12:46:30;95546.25;;;7.08;100.00
55914;BME280;58179;48.776;9.124;2024-02-23T12:48:56;95548.03;;;7.17;100.00
55914;BME280;58179;48.776;9.124;2024-02-23T12:51:25;95552.56;;;7.12;100.00
55914;BME280;58179;48.776;9.124;2024-02-23T12:53:53;95552.56;;;7.12;100.00
55914;BME280;58179;48.776;9.124;2024-02-23T12:56:20;95550.03;;;6.96;100.00
55914;BME280;58179;48.776;9.124;2024-02-23T12:58:46;95556.88;;;6.97;100.00